createdAt,value
2017-02-07T00:00:11.933Z,1013.74
2017-02-07T00:00:38.063Z,1013.74
2017-02-07T00:01:04.149Z,1013.71
2017-02-07T00:01:30.323Z,1013.72
2017-02-07T00:01:56.435Z,1013.72
2017-02-07T00:02:22.539Z,1013.75
2017-02-07T00:02:48.643Z,1013.72
2017-02-07T00:03:14.795Z,1013.72
2017-02-07T00:03:40.925Z,1013.7
2017-02-07T00:04:07.033Z,1013.72
2017-02-07T00:04:33.211Z,1013.72
2017-02-07T00:04:59.339Z,1013.73
2017-02-07T00:05:25.469Z,1013.7
2017-02-07T00:05:51.579Z,1013.67
2017-02-07T00:06:17.711Z,1013.7
2017-02-07T00:06:43.843Z,1013.71
2017-02-07T00:07:09.989Z,1013.71
2017-02-07T00:07:36.131Z,1013.71
2017-02-07T00:08:02.289Z,1013.67
2017-02-07T00:08:28.477Z,1013.7
2017-02-07T00:08:54.620Z,1013.7
2017-02-07T00:09:20.802Z,1013.7
2017-02-07T00:09:46.942Z,1013.68
2017-02-07T00:10:13.061Z,1013.69
2017-02-07T00:10:39.211Z,1013.72
2017-02-07T00:11:05.376Z,1013.72
2017-02-07T00:11:31.518Z,1013.72
2017-02-07T00:11:57.711Z,1013.74
2017-02-07T00:12:23.889Z,1013.76
2017-02-07T00:12:50.012Z,1013.73
2017-02-07T00:13:16.150Z,1013.8
2017-02-07T00:13:42.308Z,1013.76
2017-02-07T00:14:08.469Z,1013.76
2017-02-07T00:14:34.585Z,1013.77
2017-02-07T00:15:00.735Z,1013.7
2017-02-07T00:15:26.925Z,1013.77
2017-02-07T00:15:53.084Z,1013.66
2017-02-07T00:16:19.205Z,1013.7
2017-02-07T00:16:45.360Z,1013.7
2017-02-07T00:17:11.469Z,1013.68
2017-02-07T00:17:37.608Z,1013.75
2017-02-07T00:18:03.716Z,1013.69
2017-02-07T00:18:29.900Z,1013.73
2017-02-07T00:18:56.032Z,1013.72
2017-02-07T00:19:22.147Z,1013.7
2017-02-07T00:19:48.279Z,1013.69
2017-02-07T00:20:14.467Z,1013.73
2017-02-07T00:20:40.559Z,1013.76
2017-02-07T00:21:06.728Z,1013.73
2017-02-07T00:21:32.932Z,1013.7
2017-02-07T00:21:59.051Z,1013.67
2017-02-07T00:22:25.140Z,1013.69
2017-02-07T00:22:51.273Z,1013.69
2017-02-07T00:23:17.401Z,1013.7
2017-02-07T00:23:43.573Z,1013.71
2017-02-07T00:24:09.704Z,1013.71
2017-02-07T00:24:35.882Z,1013.75
2017-02-07T00:25:02.067Z,1013.75
2017-02-07T00:25:28.216Z,1013.71
2017-02-07T00:25:54.351Z,1013.73
2017-02-07T00:26:20.524Z,1013.74
2017-02-07T00:26:46.618Z,1013.74
2017-02-07T00:27:12.735Z,1013.75
2017-02-07T00:27:38.893Z,1013.73
2017-02-07T00:28:05.072Z,1013.8
2017-02-07T00:28:31.178Z,1013.72
2017-02-07T00:28:57.323Z,1013.75
2017-02-07T00:29:23.433Z,1013.75
2017-02-07T00:29:49.602Z,1013.72
2017-02-07T00:30:15.700Z,1013.76
2017-02-07T00:30:41.868Z,1013.74
2017-02-07T00:31:08.056Z,1013.75
2017-02-07T00:31:34.216Z,1013.77
2017-02-07T00:32:00.333Z,1013.74
2017-02-07T00:32:26.458Z,1013.84
2017-02-07T00:32:52.593Z,1013.76
2017-02-07T00:33:18.699Z,1013.76
2017-02-07T00:33:44.858Z,1013.76
2017-02-07T00:34:10.996Z,1013.77
2017-02-07T00:34:37.135Z,1013.74
2017-02-07T00:35:03.255Z,1013.74
2017-02-07T00:35:29.423Z,1013.72
2017-02-07T00:35:55.515Z,1013.72
2017-02-07T00:36:21.666Z,1013.71
2017-02-07T00:36:47.857Z,1013.7
2017-02-07T00:37:13.953Z,1013.7
2017-02-07T00:37:40.070Z,1013.69
2017-02-07T00:38:06.228Z,1013.69
2017-02-07T00:38:32.327Z,1013.68
2017-02-07T00:38:58.470Z,1013.74
2017-02-07T00:39:24.606Z,1013.73
2017-02-07T00:39:50.693Z,1013.72
2017-02-07T00:40:16.838Z,1013.77
2017-02-07T00:40:43.057Z,1013.77
2017-02-07T00:41:09.169Z,1013.76
2017-02-07T00:41:35.275Z,1013.85
2017-02-07T00:42:01.396Z,1013.76
2017-02-07T00:42:27.519Z,1013.76
2017-02-07T00:42:53.621Z,1013.78
2017-02-07T00:43:19.821Z,1013.7
2017-02-07T00:43:45.983Z,1013.77
2017-02-07T00:44:12.133Z,1013.77
2017-02-07T00:44:38.260Z,1013.8
2017-02-07T00:45:04.350Z,1013.79
2017-02-07T00:45:30.454Z,1013.79
2017-02-07T00:45:56.566Z,1013.79
2017-02-07T00:46:22.784Z,1013.79
2017-02-07T00:46:48.887Z,1013.76
2017-02-07T00:47:15.087Z,1013.76
2017-02-07T00:47:41.184Z,1013.78
2017-02-07T00:48:07.324Z,1013.75
2017-02-07T00:48:33.440Z,1013.74
2017-02-07T00:48:59.611Z,1013.75
2017-02-07T00:49:25.741Z,1013.77
2017-02-07T00:49:51.842Z,1013.78
2017-02-07T00:50:18.006Z,1013.77
2017-02-07T00:50:44.137Z,1013.77
2017-02-07T00:51:10.289Z,1013.76
2017-02-07T00:51:36.427Z,1013.78
2017-02-07T00:52:02.573Z,1013.75
2017-02-07T00:52:28.694Z,1013.78
2017-02-07T00:52:54.879Z,1013.77
2017-02-07T00:53:21.029Z,1013.76
2017-02-07T00:53:47.117Z,1013.75
2017-02-07T00:54:13.228Z,1013.7
2017-02-07T00:54:39.323Z,1013.68
2017-02-07T00:55:05.436Z,1013.7
2017-02-07T00:55:31.596Z,1013.69
2017-02-07T00:55:57.785Z,1013.71
2017-02-07T00:56:23.911Z,1013.66
2017-02-07T00:56:50.006Z,1013.63
2017-02-07T00:57:16.097Z,1013.66
2017-02-07T00:57:42.268Z,1013.64
2017-02-07T00:58:08.436Z,1013.71
2017-02-07T00:58:34.543Z,1013.65
2017-02-07T00:59:00.678Z,1013.69
2017-02-07T00:59:26.807Z,1013.7
2017-02-07T00:59:52.898Z,1013.73
2017-02-07T01:00:19.002Z,1013.66
2017-02-07T01:00:45.168Z,1013.69
2017-02-07T01:01:11.299Z,1013.65
2017-02-07T01:01:37.424Z,1013.64
2017-02-07T01:02:03.553Z,1013.63
2017-02-07T01:02:29.689Z,1013.63
2017-02-07T01:02:55.845Z,1013.62
2017-02-07T01:03:22.025Z,1013.62
2017-02-07T01:03:48.204Z,1013.61
2017-02-07T01:04:14.389Z,1013.61
2017-02-07T01:04:40.502Z,1013.66
2017-02-07T01:05:06.639Z,1013.64
2017-02-07T01:05:32.763Z,1013.62
2017-02-07T01:05:58.907Z,1013.62
2017-02-07T01:06:25.028Z,1013.66
2017-02-07T01:06:51.170Z,1013.65
2017-02-07T01:07:17.296Z,1013.64
2017-02-07T01:07:43.427Z,1013.61
2017-02-07T01:08:09.520Z,1013.66
2017-02-07T01:08:35.715Z,1013.62
2017-02-07T01:09:01.908Z,1013.65
2017-02-07T01:09:28.124Z,1013.64
2017-02-07T01:09:54.275Z,1013.67
2017-02-07T01:10:20.440Z,1013.66
2017-02-07T01:10:46.593Z,1013.65
2017-02-07T01:11:12.761Z,1013.69
2017-02-07T01:11:38.983Z,1013.61
2017-02-07T01:12:05.134Z,1013.65
2017-02-07T01:12:31.218Z,1013.62
2017-02-07T01:12:57.384Z,1013.62
2017-02-07T01:13:23.558Z,1013.63
2017-02-07T01:13:49.745Z,1013.62
2017-02-07T01:14:15.923Z,1013.57
2017-02-07T01:14:42.016Z,1013.58
2017-02-07T01:15:08.127Z,1013.58
2017-02-07T01:15:34.277Z,1013.57
2017-02-07T01:16:00.425Z,1013.58
2017-02-07T01:16:26.610Z,1013.58
2017-02-07T01:16:52.763Z,1013.56
2017-02-07T01:17:18.879Z,1013.57
2017-02-07T01:17:45.044Z,1013.56
2017-02-07T01:18:11.210Z,1013.58
2017-02-07T01:18:37.342Z,1013.6
2017-02-07T01:19:03.491Z,1013.57
2017-02-07T01:19:29.680Z,1013.6
2017-02-07T01:19:55.853Z,1013.55
2017-02-07T01:20:21.979Z,1013.59
2017-02-07T01:20:48.115Z,1013.63
2017-02-07T01:21:14.259Z,1013.56
2017-02-07T01:21:40.377Z,1013.63
2017-02-07T01:22:06.508Z,1013.59
2017-02-07T01:22:32.660Z,1013.59
2017-02-07T01:22:58.831Z,1013.57
2017-02-07T01:23:25.052Z,1013.6
2017-02-07T01:23:51.216Z,1013.57
2017-02-07T01:24:17.366Z,1013.55
2017-02-07T01:24:43.547Z,1013.57
2017-02-07T01:25:09.677Z,1013.54
2017-02-07T01:25:35.874Z,1013.54
2017-02-07T01:26:02.002Z,1013.48
2017-02-07T01:26:28.115Z,1013.46
2017-02-07T01:26:54.248Z,1013.47
2017-02-07T01:27:20.398Z,1013.41
2017-02-07T01:27:46.548Z,1013.43
2017-02-07T01:28:12.705Z,1013.44
2017-02-07T01:28:38.904Z,1013.44
2017-02-07T01:29:05.042Z,1013.46
2017-02-07T01:29:31.139Z,1013.46
2017-02-07T01:29:57.237Z,1013.51
2017-02-07T01:30:23.394Z,1013.45
2017-02-07T01:30:49.518Z,1013.53
2017-02-07T01:31:15.658Z,1013.5
2017-02-07T01:31:41.768Z,1013.51
2017-02-07T01:32:07.965Z,1013.55
2017-02-07T01:32:34.076Z,1013.5
2017-02-07T01:33:00.203Z,1013.48
2017-02-07T01:33:26.332Z,1013.52
2017-02-07T01:33:52.483Z,1013.5
2017-02-07T01:34:18.629Z,1013.47
2017-02-07T01:34:44.829Z,1013.46
2017-02-07T01:35:10.969Z,1013.49
2017-02-07T01:35:37.105Z,1013.38
2017-02-07T01:36:03.275Z,1013.42
2017-02-07T01:36:29.398Z,1013.42
2017-02-07T01:36:55.537Z,1013.37
2017-02-07T01:37:21.711Z,1013.4
2017-02-07T01:37:47.827Z,1013.36
2017-02-07T01:38:13.983Z,1013.39
2017-02-07T01:38:40.135Z,1013.38
2017-02-07T01:39:06.230Z,1013.41
2017-02-07T01:39:32.394Z,1013.44
2017-02-07T01:39:58.490Z,1013.39
2017-02-07T01:40:24.631Z,1013.38
2017-02-07T01:40:50.823Z,1013.41
2017-02-07T01:41:16.920Z,1013.45
2017-02-07T01:41:43.047Z,1013.42
2017-02-07T01:42:09.221Z,1013.42
2017-02-07T01:42:35.307Z,1013.41
2017-02-07T01:43:01.446Z,1013.41
2017-02-07T01:43:27.637Z,1013.45
2017-02-07T01:43:53.749Z,1013.39
2017-02-07T01:44:19.910Z,1013.41
2017-02-07T01:44:46.033Z,1013.36
2017-02-07T01:45:12.168Z,1013.39
2017-02-07T01:45:38.325Z,1013.39
2017-02-07T01:46:04.461Z,1013.41
2017-02-07T01:46:30.602Z,1013.33
2017-02-07T01:46:56.727Z,1013.43
2017-02-07T01:47:22.871Z,1013.41
2017-02-07T01:47:49.060Z,1013.4
2017-02-07T01:48:15.188Z,1013.36
2017-02-07T01:48:41.303Z,1013.36
2017-02-07T01:49:07.458Z,1013.36
2017-02-07T01:49:33.627Z,1013.38
2017-02-07T01:49:59.714Z,1013.38
2017-02-07T01:50:25.891Z,1013.39
2017-02-07T01:50:52.086Z,1013.4
2017-02-07T01:51:18.204Z,1013.4
2017-02-07T01:51:44.340Z,1013.4
2017-02-07T01:52:10.498Z,1013.43
2017-02-07T01:52:36.627Z,1013.45
2017-02-07T01:53:02.756Z,1013.37
2017-02-07T01:53:28.842Z,1013.35
2017-02-07T01:53:54.943Z,1013.38
2017-02-07T01:54:21.109Z,1013.33
2017-02-07T01:54:47.220Z,1013.33
2017-02-07T01:55:13.337Z,1013.3
2017-02-07T01:55:39.506Z,1013.3
2017-02-07T01:56:05.678Z,1013.29
2017-02-07T01:56:31.841Z,1013.28
2017-02-07T01:56:57.954Z,1013.31
2017-02-07T01:57:24.138Z,1013.27
2017-02-07T01:57:50.239Z,1013.32
2017-02-07T01:58:16.354Z,1013.31
2017-02-07T01:58:42.533Z,1013.26
2017-02-07T01:59:08.641Z,1013.33
2017-02-07T01:59:34.775Z,1013.35
2017-02-07T02:00:00.887Z,1013.25
2017-02-07T02:00:27.002Z,1013.24
2017-02-07T02:00:53.134Z,1013.24
2017-02-07T02:01:19.249Z,1013.22
2017-02-07T02:01:45.408Z,1013.18
2017-02-07T02:02:11.593Z,1013.2
2017-02-07T02:02:37.702Z,1013.18
2017-02-07T02:03:03.855Z,1013.16
2017-02-07T02:03:29.984Z,1013.17
2017-02-07T02:03:56.073Z,1013.13
2017-02-07T02:04:22.257Z,1013.14
2017-02-07T02:04:48.389Z,1013.17
2017-02-07T02:05:14.531Z,1013.21
2017-02-07T02:05:40.646Z,1013.21
2017-02-07T02:06:06.820Z,1013.2
2017-02-07T02:06:32.935Z,1013.24
2017-02-07T02:06:59.031Z,1013.28
2017-02-07T02:07:25.136Z,1013.26
2017-02-07T02:07:51.233Z,1013.28
2017-02-07T02:08:17.377Z,1013.28
2017-02-07T02:08:43.570Z,1013.24
2017-02-07T02:09:09.693Z,1013.29
2017-02-07T02:09:35.854Z,1013.31
2017-02-07T02:10:02.023Z,1013.28
2017-02-07T02:10:28.158Z,1013.29
2017-02-07T02:10:54.334Z,1013.3
2017-02-07T02:11:20.460Z,1013.28
2017-02-07T02:11:46.621Z,1013.33
2017-02-07T02:12:12.845Z,1013.31
2017-02-07T02:12:39.004Z,1013.27
2017-02-07T02:13:05.169Z,1013.27
2017-02-07T02:13:31.319Z,1013.31
2017-02-07T02:13:57.479Z,1013.28
2017-02-07T02:14:23.648Z,1013.28
2017-02-07T02:14:49.746Z,1013.3
2017-02-07T02:15:15.889Z,1013.29
2017-02-07T02:15:41.994Z,1013.3
2017-02-07T02:16:08.125Z,1013.31
2017-02-07T02:16:34.260Z,1013.32
2017-02-07T02:17:00.442Z,1013.3
2017-02-07T02:17:26.601Z,1013.31
2017-02-07T02:17:52.795Z,1013.33
2017-02-07T02:18:18.914Z,1013.25
2017-02-07T02:18:45.051Z,1013.3
2017-02-07T02:19:11.196Z,1013.28
2017-02-07T02:19:37.311Z,1013.29
2017-02-07T02:20:03.469Z,1013.29
2017-02-07T02:20:29.616Z,1013.3
2017-02-07T02:20:55.779Z,1013.29
2017-02-07T02:21:21.920Z,1013.3
2017-02-07T02:21:48.046Z,1013.34
2017-02-07T02:22:14.215Z,1013.33
2017-02-07T02:22:40.350Z,1013.32
2017-02-07T02:23:06.479Z,1013.35
2017-02-07T02:23:32.641Z,1013.34
2017-02-07T02:23:58.795Z,1013.31
2017-02-07T02:24:24.910Z,1013.31
2017-02-07T02:24:51.084Z,1013.33
2017-02-07T02:25:17.237Z,1013.31
2017-02-07T02:25:43.551Z,1013.35
2017-02-07T02:26:09.686Z,1013.37
2017-02-07T02:26:35.860Z,1013.36
2017-02-07T02:27:01.994Z,1013.3
2017-02-07T02:27:28.114Z,1013.33
2017-02-07T02:27:54.263Z,1013.35
2017-02-07T02:28:20.484Z,1013.22
2017-02-07T02:28:46.678Z,1013.25
2017-02-07T02:29:12.786Z,1013.28
2017-02-07T02:29:38.952Z,1013.3
2017-02-07T02:30:05.109Z,1013.23
2017-02-07T02:30:31.252Z,1013.23
2017-02-07T02:30:57.359Z,1013.19
2017-02-07T02:31:23.526Z,1013.25
2017-02-07T02:31:49.670Z,1013.23
2017-02-07T02:32:15.791Z,1013.22
2017-02-07T02:32:41.924Z,1013.21
2017-02-07T02:33:08.140Z,1013.17
2017-02-07T02:33:34.300Z,1013.14
2017-02-07T02:34:00.438Z,1013.16
2017-02-07T02:34:26.566Z,1013.21
2017-02-07T02:34:52.705Z,1013.22
2017-02-07T02:35:18.841Z,1013.15
2017-02-07T02:35:45.047Z,1013.16
2017-02-07T02:36:11.172Z,1013.15
2017-02-07T02:36:37.288Z,1013.18
2017-02-07T02:37:03.452Z,1013.16
2017-02-07T02:37:29.539Z,1013.17
2017-02-07T02:37:55.692Z,1013.15
2017-02-07T02:38:21.887Z,1013.15
2017-02-07T02:38:48.056Z,1013.17
2017-02-07T02:39:14.241Z,1013.13
2017-02-07T02:39:40.436Z,1013.13
2017-02-07T02:40:06.551Z,1013.12
2017-02-07T02:40:32.671Z,1013.14
2017-02-07T02:40:58.838Z,1013.14
2017-02-07T02:41:24.985Z,1013.11
2017-02-07T02:41:51.157Z,1013.12
2017-02-07T02:42:17.330Z,1013.15
2017-02-07T02:42:43.465Z,1013.12
2017-02-07T02:43:09.698Z,1013.09
2017-02-07T02:43:35.890Z,1013.15
2017-02-07T02:44:02.059Z,1013.09
2017-02-07T02:44:28.195Z,1013.14
2017-02-07T02:44:54.324Z,1013.07
2017-02-07T02:45:20.454Z,1013.12
2017-02-07T02:45:46.626Z,1013.09
2017-02-07T02:46:12.773Z,1013.01
2017-02-07T02:46:38.918Z,1013.06
2017-02-07T02:47:05.121Z,1013.05
2017-02-07T02:47:31.302Z,1012.97
2017-02-07T02:47:57.476Z,1012.99
2017-02-07T02:48:23.631Z,1012.97
2017-02-07T02:48:49.834Z,1012.95
2017-02-07T02:49:15.965Z,1012.92
2017-02-07T02:49:42.066Z,1012.91
2017-02-07T02:50:08.208Z,1012.89
2017-02-07T02:50:34.348Z,1012.88
2017-02-07T02:51:00.468Z,1012.9
2017-02-07T02:51:26.608Z,1012.91
2017-02-07T02:51:52.815Z,1012.92
2017-02-07T02:52:18.980Z,1012.93
2017-02-07T02:52:45.085Z,1012.92
2017-02-07T02:53:11.175Z,1012.89
2017-02-07T02:53:37.313Z,1012.93
2017-02-07T02:54:03.483Z,1012.94
2017-02-07T02:54:29.581Z,1012.95
2017-02-07T02:54:55.713Z,1012.9
2017-02-07T02:55:21.807Z,1012.95
2017-02-07T02:55:47.982Z,1012.93
2017-02-07T02:56:14.118Z,1012.95
2017-02-07T02:56:40.267Z,1012.92
2017-02-07T02:57:06.377Z,1012.99
2017-02-07T02:57:32.504Z,1012.96
2017-02-07T02:57:58.687Z,1012.98
2017-02-07T02:58:24.805Z,1012.88
2017-02-07T02:58:50.938Z,1012.99
2017-02-07T02:59:17.049Z,1013.03
2017-02-07T02:59:43.186Z,1012.94
2017-02-07T03:00:09.337Z,1012.91
2017-02-07T03:00:35.530Z,1012.94
2017-02-07T03:01:01.695Z,1012.92
2017-02-07T03:01:27.812Z,1012.95
2017-02-07T03:01:53.946Z,1012.93
2017-02-07T03:02:20.052Z,1012.91
2017-02-07T03:02:46.194Z,1012.89
2017-02-07T03:03:12.305Z,1012.93
2017-02-07T03:03:38.405Z,1012.92
2017-02-07T03:04:04.535Z,1012.85
2017-02-07T03:04:30.654Z,1012.93
2017-02-07T03:04:56.789Z,1012.83
2017-02-07T03:05:22.951Z,1012.86
2017-02-07T03:05:49.108Z,1012.88
2017-02-07T03:06:15.240Z,1012.95
2017-02-07T03:06:41.400Z,1012.77
2017-02-07T03:07:07.582Z,1012.83
2017-02-07T03:07:33.719Z,1012.75
2017-02-07T03:07:59.877Z,1012.72
2017-02-07T03:08:25.997Z,1012.77
2017-02-07T03:08:52.131Z,1012.76
2017-02-07T03:09:18.307Z,1012.74
2017-02-07T03:09:44.448Z,1012.77
2017-02-07T03:10:10.636Z,1012.88
2017-02-07T03:10:36.784Z,1012.89
2017-02-07T03:11:02.970Z,1012.79
2017-02-07T03:11:29.086Z,1012.81
2017-02-07T03:11:55.227Z,1012.72
2017-02-07T03:12:21.391Z,1012.82
2017-02-07T03:12:47.592Z,1012.84
2017-02-07T03:13:13.733Z,1012.8
2017-02-07T03:13:39.929Z,1012.83
2017-02-07T03:14:06.026Z,1012.83
2017-02-07T03:14:32.146Z,1012.84
2017-02-07T03:14:58.304Z,1012.85
2017-02-07T03:15:24.495Z,1012.9
2017-02-07T03:15:50.615Z,1012.93
2017-02-07T03:16:16.761Z,1013.02
2017-02-07T03:16:42.885Z,1012.88
2017-02-07T03:17:08.987Z,1012.96
2017-02-07T03:17:35.172Z,1012.91
2017-02-07T03:18:01.257Z,1012.94
2017-02-07T03:18:27.366Z,1012.96
2017-02-07T03:18:53.495Z,1012.91
2017-02-07T03:19:19.636Z,1012.92
2017-02-07T03:19:45.844Z,1012.95
2017-02-07T03:20:12.009Z,1012.92
2017-02-07T03:20:38.146Z,1012.93
2017-02-07T03:21:04.268Z,1012.88
2017-02-07T03:21:30.424Z,1012.88
2017-02-07T03:21:56.552Z,1012.9
2017-02-07T03:22:22.733Z,1012.87
2017-02-07T03:22:48.848Z,1012.85
2017-02-07T03:23:15.036Z,1012.9
2017-02-07T03:23:41.199Z,1012.84
2017-02-07T03:24:07.308Z,1012.88
2017-02-07T03:24:33.439Z,1012.88
2017-02-07T03:24:59.598Z,1012.86
2017-02-07T03:25:25.709Z,1012.9
2017-02-07T03:25:51.831Z,1012.87
2017-02-07T03:26:18.008Z,1012.89
2017-02-07T03:26:44.152Z,1012.86
2017-02-07T03:27:10.364Z,1012.92
2017-02-07T03:27:36.508Z,1012.95
2017-02-07T03:28:02.668Z,1012.94
2017-02-07T03:28:28.779Z,1012.93
2017-02-07T03:28:54.924Z,1012.97
2017-02-07T03:29:21.071Z,1013
2017-02-07T03:29:47.254Z,1012.97
2017-02-07T03:30:13.373Z,1012.96
2017-02-07T03:30:39.513Z,1012.96
2017-02-07T03:31:05.713Z,1012.98
2017-02-07T03:31:31.913Z,1012.98
2017-02-07T03:31:58.053Z,1013.01
2017-02-07T03:32:24.191Z,1013.07
2017-02-07T03:32:50.343Z,1013.05
2017-02-07T03:33:16.460Z,1013.01
2017-02-07T03:33:42.622Z,1013.04
2017-02-07T03:34:08.787Z,1012.95
2017-02-07T03:34:34.938Z,1012.97
2017-02-07T03:35:01.088Z,1012.95
2017-02-07T03:35:27.278Z,1012.96
2017-02-07T03:35:53.442Z,1012.94
2017-02-07T03:36:19.619Z,1012.88
2017-02-07T03:36:45.782Z,1012.89
2017-02-07T03:37:11.899Z,1012.84
2017-02-07T03:37:38.037Z,1012.92
2017-02-07T03:38:04.170Z,1012.85
2017-02-07T03:38:30.301Z,1012.82
2017-02-07T03:38:56.460Z,1012.87
2017-02-07T03:39:22.579Z,1012.83
2017-02-07T03:39:48.739Z,1012.87
2017-02-07T03:40:14.850Z,1012.83
2017-02-07T03:40:40.974Z,1012.83
2017-02-07T03:41:07.090Z,1012.86
2017-02-07T03:41:33.228Z,1012.86
2017-02-07T03:41:59.347Z,1012.9
2017-02-07T03:42:25.515Z,1012.96
2017-02-07T03:42:51.710Z,1012.91
2017-02-07T03:43:17.843Z,1012.9
2017-02-07T03:43:43.964Z,1012.85
2017-02-07T03:44:10.090Z,1012.94
2017-02-07T03:44:36.261Z,1012.9
2017-02-07T03:45:02.422Z,1012.88
2017-02-07T03:45:28.570Z,1012.94
2017-02-07T03:45:54.705Z,1012.92
2017-02-07T03:46:20.848Z,1012.91
2017-02-07T03:46:46.973Z,1012.91
2017-02-07T03:47:13.095Z,1013
2017-02-07T03:47:39.303Z,1012.9
2017-02-07T03:48:05.442Z,1012.92
2017-02-07T03:48:31.550Z,1012.92
2017-02-07T03:48:57.705Z,1012.88
2017-02-07T03:49:23.826Z,1012.83
2017-02-07T03:49:50.013Z,1012.81
2017-02-07T03:50:16.108Z,1012.83
2017-02-07T03:50:42.248Z,1012.79
2017-02-07T03:51:08.436Z,1012.77
2017-02-07T03:51:34.607Z,1012.85
2017-02-07T03:52:00.692Z,1012.73
2017-02-07T03:52:26.837Z,1012.73
2017-02-07T03:52:52.970Z,1012.72
2017-02-07T03:53:19.081Z,1012.7
2017-02-07T03:53:45.247Z,1012.71
2017-02-07T03:54:11.377Z,1012.78
2017-02-07T03:54:37.473Z,1012.7
2017-02-07T03:55:03.627Z,1012.73
2017-02-07T03:55:29.738Z,1012.73
2017-02-07T03:55:55.897Z,1012.74
2017-02-07T03:56:22.090Z,1012.75
2017-02-07T03:56:48.231Z,1012.79
2017-02-07T03:57:14.379Z,1012.72
2017-02-07T03:57:40.546Z,1012.78
2017-02-07T03:58:06.755Z,1012.78
2017-02-07T03:58:32.883Z,1012.84
2017-02-07T03:58:59.083Z,1012.83
2017-02-07T03:59:25.239Z,1012.84
2017-02-07T03:59:51.386Z,1012.83
2017-02-07T04:00:17.546Z,1012.82
2017-02-07T04:00:43.642Z,1012.8
2017-02-07T04:01:09.835Z,1012.81
2017-02-07T04:01:36.016Z,1012.78
2017-02-07T04:02:02.155Z,1012.78
2017-02-07T04:02:28.345Z,1012.76
2017-02-07T04:02:54.521Z,1012.69
2017-02-07T04:03:20.641Z,1012.71
2017-02-07T04:03:46.777Z,1012.67
2017-02-07T04:04:12.940Z,1012.64
2017-02-07T04:04:39.047Z,1012.61
2017-02-07T04:05:05.207Z,1012.6
2017-02-07T04:05:31.394Z,1012.6
2017-02-07T04:05:57.541Z,1012.59
2017-02-07T04:06:23.694Z,1012.61
2017-02-07T04:06:49.812Z,1012.59
2017-02-07T04:07:15.977Z,1012.61
2017-02-07T04:07:42.129Z,1012.61
2017-02-07T04:08:08.238Z,1012.61
2017-02-07T04:08:34.389Z,1012.57
2017-02-07T04:09:00.531Z,1012.58
2017-02-07T04:09:26.637Z,1012.61
2017-02-07T04:09:52.759Z,1012.61
2017-02-07T04:10:18.945Z,1012.67
2017-02-07T04:10:45.070Z,1012.63
2017-02-07T04:11:11.219Z,1012.62
2017-02-07T04:11:37.380Z,1012.63
2017-02-07T04:12:03.492Z,1012.64
2017-02-07T04:12:29.660Z,1012.65
2017-02-07T04:12:55.798Z,1012.65
2017-02-07T04:13:21.951Z,1012.6
2017-02-07T04:13:48.089Z,1012.63
2017-02-07T04:14:14.250Z,1012.63
2017-02-07T04:14:40.398Z,1012.68
2017-02-07T04:15:06.504Z,1012.6
2017-02-07T04:15:32.675Z,1012.66
2017-02-07T04:15:58.814Z,1012.65
2017-02-07T04:16:24.976Z,1012.63
2017-02-07T04:16:51.158Z,1012.64
2017-02-07T04:17:17.274Z,1012.66
2017-02-07T04:17:43.462Z,1012.64
2017-02-07T04:18:09.620Z,1012.68
2017-02-07T04:18:35.755Z,1012.66
2017-02-07T04:19:01.941Z,1012.65
2017-02-07T04:19:28.132Z,1012.68
2017-02-07T04:19:54.215Z,1012.66
2017-02-07T04:20:20.390Z,1012.66
2017-02-07T04:20:46.558Z,1012.68
2017-02-07T04:21:12.696Z,1012.68
2017-02-07T04:21:38.793Z,1012.67
2017-02-07T04:22:04.922Z,1012.68
2017-02-07T04:22:31.092Z,1012.71
2017-02-07T04:22:57.233Z,1012.75
2017-02-07T04:23:23.390Z,1012.73
2017-02-07T04:23:49.533Z,1012.63
2017-02-07T04:24:15.670Z,1012.74
2017-02-07T04:24:41.788Z,1012.7
2017-02-07T04:25:07.936Z,1012.66
2017-02-07T04:25:34.064Z,1012.68
2017-02-07T04:26:00.211Z,1012.64
2017-02-07T04:26:26.368Z,1012.67
2017-02-07T04:26:52.546Z,1012.61
2017-02-07T04:27:18.713Z,1012.64
2017-02-07T04:27:44.855Z,1012.63
2017-02-07T04:28:10.989Z,1012.64
2017-02-07T04:28:37.081Z,1012.64
2017-02-07T04:29:03.214Z,1012.63
2017-02-07T04:29:29.302Z,1012.62
2017-02-07T04:29:55.447Z,1012.64
2017-02-07T04:30:21.666Z,1012.63
2017-02-07T04:30:47.852Z,1012.59
2017-02-07T04:31:13.987Z,1012.55
2017-02-07T04:31:40.098Z,1012.61
2017-02-07T04:32:06.255Z,1012.52
2017-02-07T04:32:32.396Z,1012.58
2017-02-07T04:32:58.522Z,1012.56
2017-02-07T04:33:24.686Z,1012.52
2017-02-07T04:33:50.807Z,1012.55
2017-02-07T04:34:16.945Z,1012.53
2017-02-07T04:34:43.062Z,1012.53
2017-02-07T04:35:09.194Z,1012.5
2017-02-07T04:35:35.290Z,1012.53
2017-02-07T04:36:01.459Z,1012.53
2017-02-07T04:36:27.596Z,1012.49
2017-02-07T04:36:53.792Z,1012.5
2017-02-07T04:37:19.925Z,1012.55
2017-02-07T04:37:46.053Z,1012.53
2017-02-07T04:38:12.211Z,1012.5
2017-02-07T04:38:38.302Z,1012.48
2017-02-07T04:39:04.448Z,1012.5
2017-02-07T04:39:30.572Z,1012.49
2017-02-07T04:39:56.723Z,1012.47
2017-02-07T04:40:22.893Z,1012.45
2017-02-07T04:40:48.975Z,1012.46
2017-02-07T04:41:15.108Z,1012.4
2017-02-07T04:41:41.292Z,1012.42
2017-02-07T04:42:07.438Z,1012.44
2017-02-07T04:42:33.557Z,1012.42
2017-02-07T04:42:59.727Z,1012.45
2017-02-07T04:43:25.871Z,1012.41
2017-02-07T04:43:51.986Z,1012.4
2017-02-07T04:44:18.133Z,1012.42
2017-02-07T04:44:44.330Z,1012.39
2017-02-07T04:45:10.488Z,1012.41
2017-02-07T04:45:36.606Z,1012.44
2017-02-07T04:46:02.726Z,1012.46
2017-02-07T04:46:28.889Z,1012.51
2017-02-07T04:46:55.007Z,1012.43
2017-02-07T04:47:21.157Z,1012.44
2017-02-07T04:47:47.235Z,1012.44
2017-02-07T04:48:13.360Z,1012.44
2017-02-07T04:48:39.443Z,1012.45
2017-02-07T04:49:05.613Z,1012.47
2017-02-07T04:49:31.771Z,1012.5
2017-02-07T04:49:57.911Z,1012.47
2017-02-07T04:50:24.037Z,1012.48
2017-02-07T04:50:50.121Z,1012.51
2017-02-07T04:51:16.291Z,1012.58
2017-02-07T04:51:42.409Z,1012.51
2017-02-07T04:52:08.582Z,1012.49
2017-02-07T04:52:34.741Z,1012.51
2017-02-07T04:53:00.897Z,1012.49
2017-02-07T04:53:27.069Z,1012.53
2017-02-07T04:53:53.224Z,1012.55
2017-02-07T04:54:19.357Z,1012.55
2017-02-07T04:54:45.492Z,1012.53
2017-02-07T04:55:11.672Z,1012.51
2017-02-07T04:55:37.873Z,1012.54
2017-02-07T04:56:04.009Z,1012.52
2017-02-07T04:56:30.204Z,1012.49
2017-02-07T04:56:56.362Z,1012.49
2017-02-07T04:57:22.579Z,1012.47
2017-02-07T04:57:48.735Z,1012.49
2017-02-07T04:58:14.855Z,1012.49
2017-02-07T04:58:40.977Z,1012.48
2017-02-07T04:59:07.111Z,1012.43
2017-02-07T04:59:33.276Z,1012.48
2017-02-07T04:59:59.427Z,1012.49
2017-02-07T05:00:25.593Z,1012.45
2017-02-07T05:00:51.690Z,1012.43
2017-02-07T05:01:17.826Z,1012.45
2017-02-07T05:01:43.992Z,1012.45
2017-02-07T05:02:10.123Z,1012.4
2017-02-07T05:02:36.258Z,1012.43
2017-02-07T05:03:02.390Z,1012.42
2017-02-07T05:03:28.485Z,1012.42
2017-02-07T05:03:54.608Z,1012.42
2017-02-07T05:04:20.769Z,1012.42
2017-02-07T05:04:46.958Z,1012.39
2017-02-07T05:05:13.045Z,1012.41
2017-02-07T05:05:39.187Z,1012.41
2017-02-07T05:06:05.295Z,1012.39
2017-02-07T05:06:31.386Z,1012.38
2017-02-07T05:06:57.516Z,1012.42
2017-02-07T05:07:23.630Z,1012.38
2017-02-07T05:07:49.759Z,1012.36
2017-02-07T05:08:15.929Z,1012.36
2017-02-07T05:08:42.013Z,1012.33
2017-02-07T05:09:08.166Z,1012.35
2017-02-07T05:09:34.350Z,1012.33
2017-02-07T05:10:00.465Z,1012.37
2017-02-07T05:10:26.634Z,1012.34
2017-02-07T05:10:52.853Z,1012.31
2017-02-07T05:11:18.973Z,1012.33
2017-02-07T05:11:45.115Z,1012.34
2017-02-07T05:12:11.340Z,1012.35
2017-02-07T05:12:37.462Z,1012.39
2017-02-07T05:13:03.624Z,1012.38
2017-02-07T05:13:29.736Z,1012.32
2017-02-07T05:13:55.927Z,1012.35
2017-02-07T05:14:22.057Z,1012.39
2017-02-07T05:14:48.178Z,1012.37
2017-02-07T05:15:14.328Z,1012.33
2017-02-07T05:15:40.489Z,1012.35
2017-02-07T05:16:06.634Z,1012.37
2017-02-07T05:16:32.747Z,1012.35
2017-02-07T05:16:58.876Z,1012.37
2017-02-07T05:17:25.029Z,1012.29